Time;durP1;ratioP1;P1;durP2;ratioP2;P2;SDS_P1;SDS_P2;PMS_P1;PMS_P2;Temp;Humidity;BMP_temperature;BMP_pressure;BME280_temperature;BME280_humidity;BME280_pressure;Samples;Min_cycle;Max_cycle;Signal;HPM_P1;HPM_P2
2022/05/13 00:01:43;;;;;;;;;2.00;1.00;;;;;;;;4926774;28;45877;-69
2022/05/13 00:04:08;;;;;;;;;1.00;1.00;;;;;;;;4918306;28;45374;-69
2022/05/13 00:06:35;;;;;;;;;3.00;1.00;;;;;;;;4916142;28;45390;-70
2022/05/13 00:09:00;;;;;;;;;3.00;2.00;;;;;;;;4916274;28;45342;-70
2022/05/13 00:11:25;;;;;;;;;1.67;1.00;;;;;;;;4916377;28;46699;-70
2022/05/13 00:13:50;;;;;;;;;4.00;2.00;;;;;;;;4899554;28;45612;-78
2022/05/13 00:16:16;;;;;;;;;4.33;3.67;;;;;;;;4917578;28;45374;-78
2022/05/13 00:18:41;;;;;;;;;2.67;2.00;;;;;;;;4934639;28;45335;-68
2022/05/13 00:21:07;;;;;;;;;2.33;1.33;;;;;;;;4945978;28;45785;-69
2022/05/13 00:23:33;;;;;;;;;3.00;2.00;;;;;;;;4935410;28;45892;-69
2022/05/13 00:25:58;;;;;;;;;2.33;1.00;;;;;;;;4931079;28;45675;-68
2022/05/13 00:28:24;;;;;;;;;1.00;1.00;;;;;;;;4952818;28;45377;-76
2022/05/13 00:30:49;;;;;;;;;2.00;1.33;;;;;;;;4957756;28;45385;-78
2022/05/13 00:33:15;;;;;;;;;5.00;4.67;;;;;;;;4937710;28;45311;-78
2022/05/13 00:35:40;;;;;;;;;2.00;1.00;;;;;;;;4904276;28;45375;-78
2022/05/13 00:38:06;;;;;;;;;1.33;1.33;;;;;;;;5061977;23;45836;-70
2022/05/13 00:40:32;;;;;;;;;1.00;1.00;;;;;;;;4956031;28;46084;-70
2022/05/13 00:42:58;;;;;;;;;1.00;1.00;;;;;;;;4955170;28;45865;-69
2022/05/13 00:45:24;;;;;;;;;3.33;2.00;;;;;;;;4954577;28;45452;-69
2022/05/13 00:47:49;;;;;;;;;3.00;1.00;;;;;;;;4952945;28;45402;-69
2022/05/13 00:50:15;;;;;;;;;1.00;1.00;;;;;;;;4954461;28;46603;-70
2022/05/13 00:52:42;;;;;;;;;4.00;2.33;;;;;;;;4954305;28;45377;-69
2022/05/13 00:55:09;;;;;;;;;2.33;1.67;;;;;;;;4954461;28;45744;-69
2022/05/13 00:57:35;;;;;;;;;0.33;0.33;;;;;;;;4967294;28;45529;-69
2022/05/13 01:00:02;;;;;;;;;1.00;1.00;;;;;;;;4957316;28;45534;-78
2022/05/13 01:02:29;;;;;;;;;2.67;1.00;;;;;;;;4938849;28;45455;-76
2022/05/13 01:04:55;;;;;;;;;1.00;1.00;;;;;;;;4945622;28;45391;-76
2022/05/13 01:07:21;;;;;;;;;0.33;0.33;;;;;;;;4935945;28;46007;-76
2022/05/13 01:09:51;;;;;;;;;0.00;0.00;;;;;;;;4940382;28;47031;-76
2022/05/13 01:12:20;;;;;;;;;0.67;0.67;;;;;;;;4935000;28;45746;-78
2022/05/13 01:14:57;;;;;;;;;0.67;0.67;;;;;;;;4936823;28;45662;-78
2022/05/13 01:20:12;;;;;;;;;0.00;0.00;;;;;;;;4937083;28;45831;-77
2022/05/13 01:22:38;;;;;;;;;2.00;2.00;;;;;;;;4934894;28;45747;-77
2022/05/13 01:25:04;;;;;;;;;1.00;0.00;;;;;;;;4936424;28;45517;-77
2022/05/13 01:27:29;;;;;;;;;1.00;1.00;;;;;;;;4951568;28;45738;-77
2022/05/13 01:29:54;;;;;;;;;2.00;1.00;;;;;;;;4954270;28;46193;-70
2022/05/13 01:32:20;;;;;;;;;1.67;1.00;;;;;;;;4953361;28;45673;-69
2022/05/13 01:34:45;;;;;;;;;3.67;1.33;;;;;;;;4953342;28;45320;-70
2022/05/13 01:37:10;;;;;;;;;2.00;2.00;;;;;;;;4957867;28;45366;-69
2022/05/13 01:39:36;;;;;;;;;0.00;0.00;;;;;;;;4955405;28;45933;-69
2022/05/13 01:42:01;;;;;;;;;1.00;1.00;;;;;;;;4973541;28;45289;-77
2022/05/13 01:44:26;;;;;;;;;4.00;1.00;;;;;;;;4956208;28;45392;-69
2022/05/13 01:46:51;;;;;;;;;1.67;1.00;;;;;;;;4973551;28;46034;-76
2022/05/13 01:49:17;;;;;;;;;0.33;0.00;;;;;;;;4974852;28;45826;-77
2022/05/13 01:51:42;;;;;;;;;1.33;1.33;;;;;;;;4975462;28;45380;-77
2022/05/13 01:54:07;;;;;;;;;1.00;0.67;;;;;;;;4968203;28;45713;-70
2022/05/13 01:56:32;;;;;;;;;5.00;2.67;;;;;;;;4978590;28;45361;-69
2022/05/13 01:58:58;;;;;;;;;4.67;2.67;;;;;;;;4974403;28;46461;-68
2022/05/13 02:01:23;;;;;;;;;1.00;1.00;;;;;;;;4936232;28;45701;-67
2022/05/13 02:03:48;;;;;;;;;2.33;1.00;;;;;;;;4936733;28;45329;-67
2022/05/13 02:06:19;;;;;;;;;1.00;1.00;;;;;;;;4962778;28;45495;-69
2022/05/13 02:08:45;;;;;;;;;0.33;0.33;;;;;;;;4947885;28;46300;-70
2022/05/13 02:11:11;;;;;;;;;1.00;1.00;;;;;;;;4972739;28;45794;-69
2022/05/13 02:13:37;;;;;;;;;2.00;2.00;;;;;;;;4972911;28;45687;-70
2022/05/13 02:16:03;;;;;;;;;3.00;1.67;;;;;;;;4972671;28;45891;-69
2022/05/13 02:18:28;;;;;;;;;3.33;1.00;;;;;;;;4974535;28;45825;-78
2022/05/13 02:20:55;;;;;;;;;2.33;2.33;;;;;;;;4961291;28;45383;-78
2022/05/13 02:23:21;;;;;;;;;2.00;2.00;;;;;;;;4960859;28;45309;-78
2022/05/13 02:25:47;;;;;;;;;2.00;2.00;;;;;;;;4979451;28;45541;-77
2022/05/13 02:28:12;;;;;;;;;4.67;3.00;;;;;;;;4983464;28;45782;-78
2022/05/13 02:30:38;;;;;;;;;2.33;2.33;;;;;;;;4979118;28;45784;-77
2022/05/13 02:33:03;;;;;;;;;3.67;2.67;;;;;;;;4966687;28;45855;-69
2022/05/13 02:35:28;;;;;;;;;1.00;1.00;;;;;;;;4956270;28;45994;-77
2022/05/13 02:37:54;;;;;;;;;1.33;1.33;;;;;;;;4957600;28;45968;-76
2022/05/13 02:40:20;;;;;;;;;5.33;4.00;;;;;;;;4945191;28;45840;-78
2022/05/13 02:42:45;;;;;;;;;5.67;2.67;;;;;;;;4977210;28;45621;-76
2022/05/13 02:45:12;;;;;;;;;3.33;3.00;;;;;;;;4976721;28;45310;-79
2022/05/13 02:47:38;;;;;;;;;2.33;2.00;;;;;;;;4976478;28;45762;-79
2022/05/13 02:50:23;;;;;;;;;1.00;1.00;;;;;;;;4961890;28;45452;-70
2022/05/13 02:52:50;;;;;;;;;2.00;2.00;;;;;;;;4995326;28;45900;-68
2022/05/13 02:55:16;;;;;;;;;2.67;1.33;;;;;;;;4995009;28;45309;-69
2022/05/13 02:57:42;;;;;;;;;1.67;1.67;;;;;;;;4979568;28;46509;-77
2022/05/13 03:00:08;;;;;;;;;3.67;2.33;;;;;;;;4996902;28;45574;-77
2022/05/13 03:02:33;;;;;;;;;4.33;3.67;;;;;;;;4982026;28;45848;-77
2022/05/13 03:04:59;;;;;;;;;3.33;2.33;;;;;;;;4957579;28;45732;-77
2022/05/13 03:07:24;;;;;;;;;1.00;1.00;;;;;;;;4957537;28;45497;-78
2022/05/13 03:09:49;;;;;;;;;3.67;1.00;;;;;;;;4956475;28;45456;-75
2022/05/13 03:12:15;;;;;;;;;2.00;2.00;;;;;;;;4957471;28;45476;-76
2022/05/13 03:14:40;;;;;;;;;2.00;2.00;;;;;;;;4964929;28;45463;-77
2022/05/13 03:17:06;;;;;;;;;1.00;1.00;;;;;;;;4977182;28;46591;-78
2022/05/13 03:19:31;;;;;;;;;4.33;2.67;;;;;;;;4975741;28;46035;-69
2022/05/13 03:21:57;;;;;;;;;1.00;1.00;;;;;;;;4974672;28;45723;-69
2022/05/13 03:24:22;;;;;;;;;1.00;1.00;;;;;;;;4947462;28;45365;-69
2022/05/13 03:26:48;;;;;;;;;1.00;1.00;;;;;;;;4938009;28;47229;-69
2022/05/13 03:29:13;;;;;;;;;1.67;1.67;;;;;;;;4956398;28;45383;-68
2022/05/13 03:31:38;;;;;;;;;2.33;2.33;;;;;;;;4939247;28;45679;-70
2022/05/13 03:34:04;;;;;;;;;2.00;2.00;;;;;;;;4955937;28;45679;-69
2022/05/13 03:36:31;;;;;;;;;2.00;0.00;;;;;;;;4958122;28;46850;-70
2022/05/13 03:38:56;;;;;;;;;1.67;1.00;;;;;;;;4962400;28;45428;-68
2022/05/13 03:41:21;;;;;;;;;1.00;1.00;;;;;;;;4943812;28;45334;-70
2022/05/13 03:43:47;;;;;;;;;1.00;1.00;;;;;;;;4955239;28;45667;-71
2022/05/13 03:46:12;;;;;;;;;1.67;1.67;;;;;;;;4957037;28;45796;-69
2022/05/13 03:48:37;;;;;;;;;4.00;2.33;;;;;;;;4949135;28;45486;-69
2022/05/13 03:51:02;;;;;;;;;3.33;3.00;;;;;;;;4974526;28;45505;-68
2022/05/13 03:53:28;;;;;;;;;3.00;2.33;;;;;;;;4954630;28;45937;-68
2022/05/13 03:55:53;;;;;;;;;3.00;3.00;;;;;;;;4937104;28;46829;-69
2022/05/13 03:58:19;;;;;;;;;6.33;4.00;;;;;;;;4954851;28;45724;-70
2022/05/13 04:00:45;;;;;;;;;4.00;3.67;;;;;;;;4955057;28;45871;-69
2022/05/13 04:03:11;;;;;;;;;3.67;3.67;;;;;;;;4954822;28;45428;-69
2022/05/13 04:11:04;;;;;;;;;9.67;5.00;;;;;;;;4961208;28;45793;-69
2022/05/13 04:16:13;;;;;;;;;4.00;3.33;;;;;;;;4974691;28;46172;-69
2022/05/13 04:18:41;;;;;;;;;3.67;3.67;;;;;;;;4973947;28;45355;-70
2022/05/13 04:21:10;;;;;;;;;6.00;5.33;;;;;;;;4970277;28;45570;-71
2022/05/13 04:23:36;;;;;;;;;3.33;3.33;;;;;;;;4954425;28;45610;-69
2022/05/13 04:26:01;;;;;;;;;4.00;4.00;;;;;;;;4954317;28;45922;-69
2022/05/13 04:28:27;;;;;;;;;3.00;3.00;;;;;;;;4954168;28;45762;-69
2022/05/13 04:30:52;;;;;;;;;4.33;4.33;;;;;;;;4936779;28;45811;-69
2022/05/13 04:33:18;;;;;;;;;4.00;3.33;;;;;;;;4954581;28;45329;-71
2022/05/13 04:35:45;;;;;;;;;4.00;4.00;;;;;;;;4936801;28;47433;-71
2022/05/13 04:38:11;;;;;;;;;16.33;11.67;;;;;;;;4954709;28;45770;-69
2022/05/13 04:40:36;;;;;;;;;18.33;15.00;;;;;;;;4964838;28;45618;-69
2022/05/13 04:43:02;;;;;;;;;13.00;11.67;;;;;;;;4975065;28;45523;-70
2022/05/13 04:45:29;;;;;;;;;3.67;3.33;;;;;;;;4993551;28;45262;-70
2022/05/13 04:50:40;;;;;;;;;7.33;6.00;;;;;;;;4955451;28;45725;-68
2022/05/13 04:53:06;;;;;;;;;3.00;3.00;;;;;;;;4952432;28;45687;-70
2022/05/13 04:55:31;;;;;;;;;5.33;5.33;;;;;;;;4937219;28;48142;-69
2022/05/13 04:57:57;;;;;;;;;3.00;3.00;;;;;;;;4971012;28;46645;-70
2022/05/13 05:00:22;;;;;;;;;6.67;6.67;;;;;;;;4981964;28;45985;-70
2022/05/13 05:02:47;;;;;;;;;5.33;5.33;;;;;;;;4965081;28;45672;-69
2022/05/13 05:05:13;;;;;;;;;3.67;3.67;;;;;;;;4971713;28;46487;-75
2022/05/13 05:07:38;;;;;;;;;2.67;2.67;;;;;;;;4964758;28;45751;-75
2022/05/13 05:10:03;;;;;;;;;3.67;3.67;;;;;;;;4963539;28;46759;-76
2022/05/13 05:12:29;;;;;;;;;1.67;0.67;;;;;;;;4966283;28;45581;-75
2022/05/13 05:14:54;;;;;;;;;4.33;4.33;;;;;;;;4961082;28;46251;-77
2022/05/13 05:17:19;;;;;;;;;4.33;3.67;;;;;;;;4948300;28;46786;-77
2022/05/13 05:19:44;;;;;;;;;3.67;2.33;;;;;;;;4959332;28;45645;-78
2022/05/13 05:22:10;;;;;;;;;2.00;2.00;;;;;;;;4942207;28;46137;-76
2022/05/13 05:24:35;;;;;;;;;3.67;3.00;;;;;;;;4950182;28;47076;-74
2022/05/13 05:27:00;;;;;;;;;3.00;2.00;;;;;;;;4949498;28;45755;-78
2022/05/13 05:29:26;;;;;;;;;3.33;2.00;;;;;;;;4972280;28;45592;-77
2022/05/13 05:31:51;;;;;;;;;2.67;2.67;;;;;;;;4973786;28;45625;-75
2022/05/13 05:34:19;;;;;;;;;3.00;3.00;;;;;;;;4973800;28;45553;-76
2022/05/13 05:36:45;;;;;;;;;2.00;2.00;;;;;;;;4968997;28;45402;-75
2022/05/13 05:39:10;;;;;;;;;5.33;4.00;;;;;;;;4961138;28;45653;-79
2022/05/13 05:41:36;;;;;;;;;3.50;3.00;;;;;;;;4940763;28;45984;-78
2022/05/13 05:44:01;;;;;;;;;1.00;1.00;;;;;;;;4955541;28;45412;-77
2022/05/13 05:46:26;;;;;;;;;3.75;1.50;;;;;;;;4941142;28;45455;-69
2022/05/13 05:48:51;;;;;;;;;2.00;1.00;;;;;;;;4967614;28;45506;-69
2022/05/13 05:51:17;;;;;;;;;3.75;2.75;;;;;;;;4967410;28;45479;-77
2022/05/13 05:59:13;;;;;;;;;8.67;3.33;;;;;;;;4974188;28;45725;-77
2022/05/13 06:01:38;;;;;;;;;2.75;2.00;;;;;;;;4969652;28;45470;-80
2022/05/13 06:04:03;;;;;;;;;1.00;1.00;;;;;;;;5048309;23;46271;-73
2022/05/13 06:06:29;;;;;;;;;3.00;3.00;;;;;;;;4930908;28;45477;-81
2022/05/13 06:08:55;;;;;;;;;1.75;1.00;;;;;;;;4948785;28;45738;-75
2022/05/13 06:11:23;;;;;;;;;1.50;1.00;;;;;;;;4922917;28;45799;-75
2022/05/13 06:13:50;;;;;;;;;1.50;1.50;;;;;;;;4934331;28;47545;-75
2022/05/13 06:16:15;;;;;;;;;2.00;1.00;;;;;;;;4939072;28;45385;-80
2022/05/13 06:18:40;;;;;;;;;3.00;2.00;;;;;;;;4943239;28;45394;-82
2022/05/13 06:21:05;;;;;;;;;1.00;1.00;;;;;;;;4922931;28;46059;-81
2022/05/13 06:23:31;;;;;;;;;3.00;3.00;;;;;;;;4930245;28;45814;-83
2022/05/13 06:25:56;;;;;;;;;2.25;2.25;;;;;;;;4935053;28;45790;-80
2022/05/13 06:28:21;;;;;;;;;1.00;1.00;;;;;;;;4936908;28;45799;-80
2022/05/13 06:30:47;;;;;;;;;3.25;3.00;;;;;;;;4936566;28;45734;-73
2022/05/13 06:33:12;;;;;;;;;2.00;0.25;;;;;;;;4925178;28;45627;-76
2022/05/13 06:35:38;;;;;;;;;3.00;2.00;;;;;;;;4935742;28;45493;-80
2022/05/13 06:38:03;;;;;;;;;1.50;1.00;;;;;;;;4933120;28;45429;-81
2022/05/13 06:40:31;;;;;;;;;5.67;5.67;;;;;;;;4929487;28;45662;-82
2022/05/13 06:42:56;;;;;;;;;6.75;4.25;;;;;;;;4936108;28;46721;-80
2022/05/13 06:45:21;;;;;;;;;4.25;1.25;;;;;;;;4936703;28;45991;-81
2022/05/13 06:47:47;;;;;;;;;1.00;1.00;;;;;;;;4935658;28;45858;-83
2022/05/13 06:50:16;;;;;;;;;1.00;1.00;;;;;;;;4935466;28;45760;-81
2022/05/13 06:52:41;;;;;;;;;1.25;1.00;;;;;;;;4917946;28;46807;-82
2022/05/13 06:55:09;;;;;;;;;2.00;2.00;;;;;;;;4938975;28;45793;-87
2022/05/13 06:57:34;;;;;;;;;2.00;1.00;;;;;;;;4941790;28;45528;-79
2022/05/13 07:00:00;;;;;;;;;2.00;2.00;;;;;;;;4915719;28;47207;-81
2022/05/13 07:02:27;;;;;;;;;3.00;2.75;;;;;;;;4928789;28;46211;-79
2022/05/13 07:04:52;;;;;;;;;2.25;1.50;;;;;;;;4919869;28;45882;-81
2022/05/13 07:07:17;;;;;;;;;1.25;1.25;;;;;;;;4927866;28;45987;-80
2022/05/13 07:09:44;;;;;;;;;3.25;3.00;;;;;;;;4919531;28;45504;-81
2022/05/13 07:12:09;;;;;;;;;1.33;1.00;;;;;;;;4922940;28;47031;-79
2022/05/13 07:14:35;;;;;;;;;1.75;1.50;;;;;;;;4937531;28;45358;-80
2022/05/13 07:17:18;;;;;;;;;2.75;1.00;;;;;;;;4940002;28;46004;-81
2022/05/13 07:19:51;;;;;;;;;3.25;1.50;;;;;;;;4943026;28;47108;-84
2022/05/13 07:22:16;;;;;;;;;0.50;0.50;;;;;;;;4928044;28;47993;-81
2022/05/13 07:24:42;;;;;;;;;1.00;1.00;;;;;;;;4931466;28;45540;-82
2022/05/13 07:27:07;;;;;;;;;0.50;0.25;;;;;;;;4917973;28;45752;-80
2022/05/13 07:29:32;;;;;;;;;3.00;1.00;;;;;;;;4916229;28;45461;-79
2022/05/13 07:31:58;;;;;;;;;1.00;1.00;;;;;;;;4930828;28;46159;-79
2022/05/13 07:34:23;;;;;;;;;0.75;0.75;;;;;;;;4949804;28;45390;-83
2022/05/13 07:36:53;;;;;;;;;2.25;1.00;;;;;;;;4947031;28;45699;-82
2022/05/13 07:42:03;;;;;;;;;1.00;0.00;;;;;;;;4937546;28;45836;-81
2022/05/13 07:44:29;;;;;;;;;1.00;1.00;;;;;;;;4920063;28;45391;-80
2022/05/13 07:46:54;;;;;;;;;1.00;1.00;;;;;;;;4920302;28;45929;-80
2022/05/13 07:49:19;;;;;;;;;1.25;1.25;;;;;;;;4936730;28;45723;-81
2022/05/13 07:51:45;;;;;;;;;2.00;2.00;;;;;;;;4936841;28;46212;-82
2022/05/13 07:54:10;;;;;;;;;1.00;1.00;;;;;;;;4938200;28;45885;-81
2022/05/13 07:56:35;;;;;;;;;1.00;1.00;;;;;;;;4937763;28;45537;-80
2022/05/13 07:59:02;;;;;;;;;2.33;1.00;;;;;;;;4937979;28;45512;-80
2022/05/13 08:01:28;;;;;;;;;0.50;0.50;;;;;;;;4937650;28;45818;-83
2022/05/13 08:03:53;;;;;;;;;1.00;1.00;;;;;;;;4936859;28;45582;-80
2022/05/13 08:06:18;;;;;;;;;1.00;0.00;;;;;;;;4939759;28;45900;-83
2022/05/13 08:08:46;;;;;;;;;3.00;1.00;;;;;;;;4915476;28;46390;-81
2022/05/13 08:11:13;;;;;;;;;3.67;1.33;;;;;;;;4922162;28;46471;-81
2022/05/13 08:13:39;;;;;;;;;0.00;0.00;;;;;;;;4947176;28;45770;-81
2022/05/13 08:16:06;;;;;;;;;2.00;1.00;;;;;;;;4920031;28;45546;-80
2022/05/13 08:18:32;;;;;;;;;0.00;0.00;;;;;;;;4937088;28;45727;-81
2022/05/13 08:20:57;;;;;;;;;0.00;0.00;;;;;;;;4937982;28;46407;-83
2022/05/13 08:23:23;;;;;;;;;0.33;0.33;;;;;;;;4941222;28;45653;-79
2022/05/13 08:25:48;;;;;;;;;1.33;1.33;;;;;;;;4919945;28;45793;-79
2022/05/13 08:28:14;;;;;;;;;1.00;1.00;;;;;;;;4937328;28;45903;-80
2022/05/13 08:30:40;;;;;;;;;2.33;0.00;;;;;;;;4930671;28;45851;-82
2022/05/13 08:33:09;;;;;;;;;0.00;0.00;;;;;;;;4899888;28;46946;-81
2022/05/13 08:35:36;;;;;;;;;1.00;0.00;;;;;;;;4941146;28;45792;-80
2022/05/13 08:38:01;;;;;;;;;0.00;0.00;;;;;;;;4922280;28;45467;-80
2022/05/13 08:40:46;;;;;;;;;0.00;0.00;;;;;;;;4918743;28;47789;-81
2022/05/13 08:43:13;;;;;;;;;0.00;0.00;;;;;;;;4937548;28;45506;-81
2022/05/13 08:45:41;;;;;;;;;0.33;0.33;;;;;;;;4936639;28;45991;-80
2022/05/13 08:48:13;;;;;;;;;0.50;0.50;;;;;;;;4929756;28;45745;-81
2022/05/13 08:50:47;;;;;;;;;1.00;0.00;;;;;;;;4931029;28;48077;-81
2022/05/13 08:53:38;;;;;;;;;0.33;0.00;;;;;;;;4934773;28;45522;-81
2022/05/13 08:56:08;;;;;;;;;2.33;2.33;;;;;;;;4913759;28;45800;-81
2022/05/13 08:58:55;;;;;;;;;1.33;1.33;;;;;;;;4899355;28;46729;-83
2022/05/13 09:01:25;;;;;;;;;4.67;1.00;;;;;;;;4917313;28;46483;-83
2022/05/13 09:03:53;;;;;;;;;1.00;1.00;;;;;;;;4920028;28;45505;-81
2022/05/13 09:06:30;;;;;;;;;1.33;0.33;;;;;;;;4923473;28;45402;-81
2022/05/13 09:08:57;;;;;;;;;0.00;0.00;;;;;;;;4938731;28;45585;-82
2022/05/13 09:11:34;;;;;;;;;0.00;0.00;;;;;;;;4921632;28;47595;-80
2022/05/13 09:14:25;;;;;;;;;0.00;0.00;;;;;;;;4951316;28;45603;-81
2022/05/13 09:17:00;;;;;;;;;4.00;4.00;;;;;;;;4888754;28;45680;-79
2022/05/13 09:19:46;;;;;;;;;1.00;0.33;;;;;;;;4933282;28;45845;-80
2022/05/13 09:22:12;;;;;;;;;3.67;1.00;;;;;;;;4935940;28;46191;-83
2022/05/13 09:24:38;;;;;;;;;0.67;0.00;;;;;;;;4936059;28;45898;-82
2022/05/13 09:27:04;;;;;;;;;0.33;0.33;;;;;;;;4919196;28;45891;-81
2022/05/13 09:29:39;;;;;;;;;1.00;1.00;;;;;;;;4918686;28;46629;-80
2022/05/13 09:32:07;;;;;;;;;0.00;0.00;;;;;;;;4920202;28;45483;-82
2022/05/13 09:34:41;;;;;;;;;6.00;1.00;;;;;;;;4900429;28;45533;-82
2022/05/13 09:37:11;;;;;;;;;0.00;0.00;;;;;;;;4938854;28;45670;-83
2022/05/13 09:39:38;;;;;;;;;0.00;0.00;;;;;;;;4922525;28;46267;-82
2022/05/13 09:42:21;;;;;;;;;0.00;0.00;;;;;;;;4939913;28;47142;-80
2022/05/13 09:44:46;;;;;;;;;0.00;0.00;;;;;;;;4943945;28;45454;-81
2022/05/13 09:47:20;;;;;;;;;2.00;0.00;;;;;;;;4941958;28;45984;-81
2022/05/13 09:49:49;;;;;;;;;0.00;0.00;;;;;;;;4956449;28;45777;-81
2022/05/13 09:52:25;;;;;;;;;0.00;0.00;;;;;;;;4932001;28;45601;-80
2022/05/13 09:54:51;;;;;;;;;0.00;0.00;;;;;;;;4938629;28;45498;-81
2022/05/13 09:57:30;;;;;;;;;0.00;0.00;;;;;;;;4939008;28;45804;-80
2022/05/13 09:59:55;;;;;;;;;0.33;0.33;;;;;;;;4930385;28;45521;-85
2022/05/13 10:02:36;;;;;;;;;2.00;0.00;;;;;;;;4932368;28;45761;-82
2022/05/13 10:05:21;;;;;;;;;1.00;0.00;;;;;;;;4939610;28;45542;-83
2022/05/13 10:07:49;;;;;;;;;1.00;0.00;;;;;;;;4934151;28;46022;-82
2022/05/13 10:15:56;;;;;;;;;0.00;0.00;;;;;;;;4936472;28;45564;-81
2022/05/13 10:18:25;;;;;;;;;1.00;0.00;;;;;;;;4937169;28;45369;-86
2022/05/13 10:20:53;;;;;;;;;1.33;0.00;;;;;;;;4917598;28;46333;-82
2022/05/13 10:23:27;;;;;;;;;0.00;0.00;;;;;;;;4939092;28;46392;-83
2022/05/13 10:25:58;;;;;;;;;0.00;0.00;;;;;;;;4935603;28;45468;-80
2022/05/13 10:28:32;;;;;;;;;1.00;0.00;;;;;;;;4936288;28;45375;-80
2022/05/13 10:31:00;;;;;;;;;1.33;0.00;;;;;;;;4932684;28;45878;-80
2022/05/13 10:33:29;;;;;;;;;0.00;0.00;;;;;;;;4937587;28;46140;-83
2022/05/13 10:35:59;;;;;;;;;0.00;0.00;;;;;;;;4931652;28;45822;-82
2022/05/13 10:38:29;;;;;;;;;0.00;0.00;;;;;;;;4937048;28;45897;-82
2022/05/13 10:40:56;;;;;;;;;0.00;0.00;;;;;;;;4935294;28;45656;-84
2022/05/13 10:43:41;;;;;;;;;0.33;0.00;;;;;;;;4937200;28;46265;-81
2022/05/13 10:46:28;;;;;;;;;0.33;0.33;;;;;;;;4939321;28;46101;-81
2022/05/13 10:48:54;;;;;;;;;2.00;1.67;;;;;;;;4904658;28;45491;-82
2022/05/13 10:51:27;;;;;;;;;3.00;2.00;;;;;;;;4942286;28;45700;-82
2022/05/13 10:54:10;;;;;;;;;1.00;1.00;;;;;;;;4922751;28;45875;-81
2022/05/13 10:56:36;;;;;;;;;0.00;0.00;;;;;;;;4934363;28;46615;-81
2022/05/13 10:59:20;;;;;;;;;1.00;1.00;;;;;;;;4919718;28;45723;-83
2022/05/13 11:01:52;;;;;;;;;1.33;1.00;;;;;;;;4912022;28;46129;-81
2022/05/13 11:04:23;;;;;;;;;0.00;0.00;;;;;;;;4914047;28;47012;-81
2022/05/13 11:06:52;;;;;;;;;1.33;1.00;;;;;;;;4931186;28;45772;-81
2022/05/13 11:09:43;;;;;;;;;0.00;0.00;;;;;;;;4931304;28;45511;-81
2022/05/13 11:12:24;;;;;;;;;0.00;0.00;;;;;;;;4918839;28;45853;-82
2022/05/13 11:14:54;;;;;;;;;3.00;1.00;;;;;;;;4934753;28;45540;-82
2022/05/13 11:17:38;;;;;;;;;0.75;0.75;;;;;;;;4933475;28;46092;-80
2022/05/13 11:20:18;;;;;;;;;0.25;0.25;;;;;;;;4911844;28;45586;-81
2022/05/13 11:22:55;;;;;;;;;0.00;0.00;;;;;;;;4909143;28;45486;-81
2022/05/13 11:25:56;;;;;;;;;2.00;1.00;;;;;;;;4916046;28;46859;-81
2022/05/13 11:28:45;;;;;;;;;1.00;1.00;;;;;;;;4916072;28;46084;-82
2022/05/13 11:31:29;;;;;;;;;1.00;0.00;;;;;;;;4934435;28;45968;-80
2022/05/13 11:34:05;;;;;;;;;1.00;1.00;;;;;;;;4921356;28;46518;-82
2022/05/13 11:36:49;;;;;;;;;0.75;0.75;;;;;;;;4913014;28;47395;-82
2022/05/13 11:39:33;;;;;;;;;1.00;1.00;;;;;;;;4933156;28;45777;-81
2022/05/13 11:42:04;;;;;;;;;0.00;0.00;;;;;;;;4930317;28;45482;-82
2022/05/13 11:44:50;;;;;;;;;2.00;1.00;;;;;;;;4931061;28;45755;-79
2022/05/13 11:47:17;;;;;;;;;2.00;1.00;;;;;;;;4910937;28;46954;-83
2022/05/13 11:49:45;;;;;;;;;0.25;0.25;;;;;;;;4931996;28;45766;-81
2022/05/13 11:52:13;;;;;;;;;2.00;1.00;;;;;;;;4927620;28;45940;-81
2022/05/13 11:54:41;;;;;;;;;1.50;1.00;;;;;;;;4915420;28;47148;-81
2022/05/13 11:57:24;;;;;;;;;2.00;0.25;;;;;;;;4927914;28;45289;-83
2022/05/13 11:59:49;;;;;;;;;1.75;1.75;;;;;;;;4911895;28;45669;-81
2022/05/13 12:02:35;;;;;;;;;0.75;0.75;;;;;;;;4928916;28;46065;-81
2022/05/13 12:05:20;;;;;;;;;0.75;0.00;;;;;;;;4909329;28;45721;-81
2022/05/13 12:07:51;;;;;;;;;1.50;1.00;;;;;;;;4914289;28;47809;-82
2022/05/13 12:10:18;;;;;;;;;2.00;1.00;;;;;;;;4935550;28;45878;-82
2022/05/13 12:12:45;;;;;;;;;0.75;0.75;;;;;;;;4934491;28;45739;-80
2022/05/13 12:15:19;;;;;;;;;1.00;1.00;;;;;;;;4916235;28;45769;-80
2022/05/13 12:17:58;;;;;;;;;2.25;1.00;;;;;;;;4921255;28;45474;-80
2022/05/13 12:20:45;;;;;;;;;0.50;0.50;;;;;;;;4917681;28;45906;-80
2022/05/13 12:23:29;;;;;;;;;1.25;1.25;;;;;;;;4931423;28;45940;-81
2022/05/13 12:25:57;;;;;;;;;1.00;1.00;;;;;;;;4936312;28;45866;-81
2022/05/13 12:28:24;;;;;;;;;1.67;1.00;;;;;;;;4937751;28;46661;-81
2022/05/13 12:30:51;;;;;;;;;1.00;1.00;;;;;;;;4936369;28;45729;-82
2022/05/13 12:33:20;;;;;;;;;0.25;0.25;;;;;;;;4920925;28;45598;-82
2022/05/13 12:39:02;;;;;;;;;1.75;1.75;;;;;;;;4933444;28;45753;-81
2022/05/13 12:41:38;;;;;;;;;2.00;1.00;;;;;;;;4933723;28;45756;-81
2022/05/13 12:44:07;;;;;;;;;2.33;1.00;;;;;;;;4916842;28;45653;-81
2022/05/13 12:46:50;;;;;;;;;1.00;1.00;;;;;;;;4935952;28;45498;-81
2022/05/13 12:49:24;;;;;;;;;1.00;1.00;;;;;;;;4934852;28;46010;-82
2022/05/13 12:52:00;;;;;;;;;2.67;1.67;;;;;;;;4903355;28;45634;-76
2022/05/13 12:54:27;;;;;;;;;0.00;0.00;;;;;;;;4932227;28;45862;-81
2022/05/13 12:56:55;;;;;;;;;1.00;1.00;;;;;;;;4935641;28;45875;-80
2022/05/13 12:59:27;;;;;;;;;2.00;2.00;;;;;;;;4933383;28;47582;-81
2022/05/13 13:01:56;;;;;;;;;2.00;1.00;;;;;;;;4936368;28;45517;-82
2022/05/13 13:04:24;;;;;;;;;1.33;1.33;;;;;;;;4921920;28;45713;-81
2022/05/13 13:06:49;;;;;;;;;1.33;1.00;;;;;;;;4913638;28;45543;-82
2022/05/13 13:09:35;;;;;;;;;0.00;0.00;;;;;;;;4915595;28;45379;-81
2022/05/13 13:12:27;;;;;;;;;2.00;1.00;;;;;;;;4898904;28;45542;-82
2022/05/13 13:15:13;;;;;;;;;2.33;2.00;;;;;;;;4913177;28;45512;-81
2022/05/13 13:17:47;;;;;;;;;0.00;0.00;;;;;;;;4916828;28;46031;-80
2022/05/13 13:20:14;;;;;;;;;1.33;1.33;;;;;;;;4894442;28;46653;-81
2022/05/13 13:23:03;;;;;;;;;1.00;1.00;;;;;;;;4913466;28;45553;-81
2022/05/13 13:25:37;;;;;;;;;1.25;0.75;;;;;;;;4904149;28;45410;-83
2022/05/13 13:28:04;;;;;;;;;3.00;1.33;;;;;;;;4913152;28;46684;-81
2022/05/13 13:30:31;;;;;;;;;0.33;0.33;;;;;;;;4894689;28;46756;-82
2022/05/13 13:32:57;;;;;;;;;0.00;0.00;;;;;;;;4909516;28;45516;-82
2022/05/13 13:35:32;;;;;;;;;1.00;1.00;;;;;;;;4915527;28;45838;-83
2022/05/13 13:37:58;;;;;;;;;1.33;1.33;;;;;;;;4896076;28;45871;-74
2022/05/13 13:40:37;;;;;;;;;2.00;1.00;;;;;;;;4895091;28;48057;-82
2022/05/13 13:43:09;;;;;;;;;0.00;0.00;;;;;;;;4902795;28;45658;-74
2022/05/13 14:42:47;;;;;;;;;;;;;;;;;;;;;
2022/05/13 14:45:20;;;;;;;;;1.00;1.00;;;;;;;;4900887;28;45511;-78
2022/05/13 14:47:47;;;;;;;;;2.00;1.00;;;;;;;;4909561;28;45632;-78
2022/05/13 14:50:19;;;;;;;;;0.00;0.00;;;;;;;;4894241;28;46558;-81
2022/05/13 14:52:53;;;;;;;;;0.33;0.33;;;;;;;;4902530;28;45763;-79
2022/05/13 14:55:26;;;;;;;;;1.67;1.67;;;;;;;;4908402;28;45883;-79
2022/05/13 14:57:52;;;;;;;;;1.00;1.00;;;;;;;;4892054;28;45644;-79
2022/05/13 15:00:20;;;;;;;;;1.00;1.00;;;;;;;;4905382;28;45827;-78
2022/05/13 15:03:06;;;;;;;;;0.67;0.67;;;;;;;;4901489;28;45443;-80
2022/05/13 15:05:34;;;;;;;;;1.00;1.00;;;;;;;;4887377;28;45491;-78
2022/05/13 15:08:01;;;;;;;;;1.67;0.00;;;;;;;;4903159;28;45884;-83
2022/05/13 15:10:44;;;;;;;;;1.00;0.25;;;;;;;;4924363;28;45784;-87
2022/05/13 15:31:29;;;;;;;;;1.00;1.00;;;;;;;;4912862;28;45722;-87
2022/05/13 15:37:13;;;;;;;;;1.00;1.00;;;;;;;;4906783;28;45453;-89
2022/05/13 15:39:40;;;;;;;;;0.67;0.33;;;;;;;;4904637;28;45402;-88
2022/05/13 15:45:33;;;;;;;;;2.00;2.00;;;;;;;;4916150;28;45395;-80
2022/05/13 15:48:00;;;;;;;;;1.33;1.33;;;;;;;;4916875;28;46697;-80
2022/05/13 15:57:35;;;;;;;;;;;;;;;;;;;;;
2022/05/13 16:04:09;;;;;;;;;2.00;2.00;;;;;;;;4876318;29;45510;-81
2022/05/13 16:06:42;;;;;;;;;1.00;1.00;;;;;;;;4872805;29;45979;-84
2022/05/13 16:09:20;;;;;;;;;10.67;8.33;;;;;;;;4860657;29;45392;-82
2022/05/13 16:12:52;;;;;;;;;4.33;3.67;;;;;;;;4873012;29;45608;-82
2022/05/13 16:15:15;;;;;;;;;4.00;4.00;;;;;;;;4869727;29;46623;-84
2022/05/13 16:21:13;;;;;;;;;3.67;2.67;;;;;;;;4943624;28;46462;-91
2022/05/13 16:45:41;;;;;;;;;2.33;2.00;;;;;;;;4787763;29;45420;-81
2022/05/13 16:48:07;;;;;;;;;2.00;2.00;;;;;;;;4820403;29;46078;-79
2022/05/13 16:50:32;;;;;;;;;2.00;2.00;;;;;;;;4879601;28;46155;-79
2022/05/13 16:53:02;;;;;;;;;11.33;7.67;;;;;;;;4925598;28;45526;-84
2022/05/13 16:55:31;;;;;;;;;17.67;15.67;;;;;;;;4937121;28;45570;-82
2022/05/13 16:57:56;;;;;;;;;5.67;4.33;;;;;;;;4934334;28;45745;-83
2022/05/13 17:00:26;;;;;;;;;49.33;39.67;;;;;;;;4923449;28;45437;-86
2022/05/13 17:02:54;;;;;;;;;5.00;4.67;;;;;;;;4926552;28;45396;-89
2022/05/13 17:05:24;;;;;;;;;13.33;8.00;;;;;;;;4929639;28;45730;-89
2022/05/13 17:07:50;;;;;;;;;8.00;7.33;;;;;;;;4966584;23;45547;-81
2022/05/13 17:21:19;;;;;;;;;2.00;2.00;;;;;;;;4936351;28;45576;-76
2022/05/13 17:23:44;;;;;;;;;6.33;6.33;;;;;;;;4937991;28;45817;-78
2022/05/13 17:26:09;;;;;;;;;2.33;2.33;;;;;;;;4938145;28;45558;-78
2022/05/13 17:28:34;;;;;;;;;1.00;1.00;;;;;;;;4957238;28;45659;-80
2022/05/13 17:31:00;;;;;;;;;1.00;1.00;;;;;;;;4962795;28;45608;-79
2022/05/13 17:33:26;;;;;;;;;1.00;0.67;;;;;;;;4944822;28;45841;-80
2022/05/13 17:35:53;;;;;;;;;4.33;4.33;;;;;;;;4961665;28;45670;-79
2022/05/13 17:38:18;;;;;;;;;7.67;7.00;;;;;;;;4943282;28;47185;-81